Time;durP1;ratioP1;P1;durP2;ratioP2;P2;SDS_P1;SDS_P2;PMS_P1;PMS_P2;Temp;Humidity;BMP_temperature;BMP_pressure;BME280_temperature;BME280_humidity;BME280_pressure;Samples;Min_cycle;Max_cycle;Signal;HPM_P1;HPM_P2
2023/03/31 00:00:01;;;;;;;;;1.25;1.00;;;;;15.24;62.42;99782.88;5075135;27;45603;-75
2023/03/31 00:02:28;;;;;;;;;4.50;1.00;;;;;15.18;62.53;99763.22;5075012;28;45504;-75
2023/03/31 00:08:16;;;;;;;;;2.00;2.00;;;;;15.23;62.71;99797.88;5074999;28;45494;-74
2023/03/31 00:10:45;;;;;;;;;2.00;1.00;;;;;15.22;62.65;99790.97;5075414;28;45534;-75
2023/03/31 00:13:11;;;;;;;;;3.00;1.00;;;;;15.18;63.07;99788.78;5075469;27;45644;-74
2023/03/31 00:15:37;;;;;;;;;2.00;2.00;;;;;15.11;63.10;99775.44;5075039;27;45870;-75
2023/03/31 00:18:02;;;;;;;;;2.00;1.75;;;;;15.01;63.25;99709.56;5090308;27;46894;-74
2023/03/31 00:20:28;;;;;;;;;1.50;1.50;;;;;15.10;63.39;99697.25;5074531;27;47493;-74
2023/03/31 00:22:56;;;;;;;;;2.00;1.00;;;;;15.07;63.76;99713.38;5073521;28;45679;-75
2023/03/31 00:25:22;;;;;;;;;6.00;1.50;;;;;14.97;63.63;99673.97;5075365;27;45599;-75
2023/03/31 00:27:49;;;;;;;;;4.25;1.00;;;;;14.98;63.74;99659.78;5074561;28;46534;-76
2023/03/31 00:30:15;;;;;;;;;5.00;1.75;;;;;14.80;63.82;99626.59;5074429;27;47012;-75
2023/03/31 00:32:41;;;;;;;;;3.00;2.00;;;;;14.93;63.83;99648.06;5074763;27;45648;-74
2023/03/31 00:38:45;;;;;;;;;3.00;1.00;;;;;14.88;63.49;99624.00;5065339;28;45617;-74
2023/03/31 00:41:10;;;;;;;;;1.75;1.25;;;;;14.86;63.32;99636.50;5074154;27;47489;-75
2023/03/31 00:43:37;;;;;;;;;1.00;1.00;;;;;14.76;63.59;99641.09;5074845;27;45499;-74
2023/03/31 00:46:20;;;;;;;;;2.50;1.25;;;;;14.75;63.75;99627.06;5074779;27;45493;-76
2023/03/31 00:48:53;;;;;;;;;3.00;1.25;;;;;14.72;63.29;99619.50;5074141;27;48251;-75
2023/03/31 00:51:21;;;;;;;;;1.75;1.75;;;;;14.66;63.34;99606.94;5074332;27;46192;-74
2023/03/31 00:53:59;;;;;;;;;2.00;1.00;;;;;14.65;63.60;99602.66;5074387;28;45534;-74
2023/03/31 00:56:28;;;;;;;;;1.75;1.25;;;;;14.64;63.21;99588.66;5074758;27;45660;-73
2023/03/31 00:59:06;;;;;;;;;1.00;1.00;;;;;14.59;63.20;99587.47;5074204;27;45488;-77
2023/03/31 01:01:38;;;;;;;;;2.00;1.00;;;;;14.41;63.45;99565.69;5089891;27;46132;-76
2023/03/31 01:04:12;;;;;;;;;2.00;1.50;;;;;14.50;63.31;99581.34;5074127;27;45684;-76
2023/03/31 01:06:49;;;;;;;;;1.00;1.00;;;;;14.18;63.42;99531.97;5090228;27;45667;-75
2023/03/31 01:09:15;;;;;;;;;0.75;0.25;;;;;14.25;63.19;99538.22;5073102;28;48461;-74
2023/03/31 01:11:45;;;;;;;;;2.00;1.25;;;;;14.47;63.06;99578.19;5074232;27;45879;-74
2023/03/31 01:14:11;;;;;;;;;0.50;0.50;;;;;14.43;63.26;99571.59;5074744;27;45809;-73
2023/03/31 01:16:38;;;;;;;;;3.00;0.50;;;;;14.32;62.88;99567.41;5074440;28;45653;-73
2023/03/31 01:19:21;;;;;;;;;1.00;0.00;;;;;14.22;63.40;99557.00;5073931;27;47413;-74
2023/03/31 01:22:08;;;;;;;;;1.00;1.00;;;;;14.19;63.21;99549.44;5074296;27;45949;-74
2023/03/31 01:24:46;;;;;;;;;2.00;1.00;;;;;14.20;63.27;99542.31;5074224;27;45796;-76
2023/03/31 01:27:42;;;;;;;;;0.00;0.00;;;;;14.20;63.72;99553.69;5074051;27;45528;-75
2023/03/31 01:30:26;;;;;;;;;2.25;1.00;;;;;14.22;63.86;99549.09;5072159;28;46623;-75
2023/03/31 01:33:15;;;;;;;;;2.25;1.00;;;;;14.23;64.02;99542.03;5073705;28;46030;-76
2023/03/31 01:36:08;;;;;;;;;1.00;0.00;;;;;14.20;63.80;99544.94;5073898;28;45658;-77
2023/03/31 01:38:49;;;;;;;;;3.00;1.25;;;;;14.02;64.09;99525.78;5090163;27;45702;-75
2023/03/31 01:41:27;;;;;;;;;2.25;1.00;;;;;14.15;64.19;99539.34;5075055;27;47382;-74
2023/03/31 01:44:16;;;;;;;;;0.00;0.00;;;;;14.18;64.05;99531.13;5074961;27;47203;-75
2023/03/31 01:47:08;;;;;;;;;2.00;0.75;;;;;14.19;64.17;99532.78;5074188;27;45670;-75
2023/03/31 01:53:11;;;;;;;;;2.00;1.00;;;;;14.17;64.13;99503.97;5073708;28;45791;-74
2023/03/31 01:55:45;;;;;;;;;1.00;1.00;;;;;14.11;64.66;99483.53;5073780;27;46058;-76
2023/03/31 01:58:22;;;;;;;;;1.00;1.00;;;;;14.09;64.62;99477.56;5073446;27;45687;-74
2023/03/31 02:00:55;;;;;;;;;2.00;1.75;;;;;14.12;64.25;99473.81;5073770;27;45707;-75
2023/03/31 02:03:25;;;;;;;;;3.00;1.00;;;;;14.09;64.47;99482.84;5073676;28;46553;-75
2023/03/31 02:09:18;;;;;;;;;1.00;1.00;;;;;14.03;64.84;99472.97;5073246;28;45639;-76
2023/03/31 02:11:47;;;;;;;;;1.75;1.75;;;;;14.00;64.95;99470.63;5073463;27;45673;-73
2023/03/31 02:14:18;;;;;;;;;2.00;2.00;;;;;14.03;65.07;99465.06;5073799;27;45899;-76
2023/03/31 02:16:48;;;;;;;;;1.50;1.00;;;;;14.06;65.01;99462.09;5077226;27;45855;-75
2023/03/31 02:19:17;;;;;;;;;2.00;2.00;;;;;13.99;65.22;99452.34;5076659;27;45753;-76
2023/03/31 02:25:10;;;;;;;;;2.00;2.00;;;;;14.07;64.86;99455.03;5076853;28;45769;-75
2023/03/31 02:27:41;;;;;;;;;2.00;2.00;;;;;14.10;65.13;99447.63;5076843;27;45668;-75
2023/03/31 02:30:09;;;;;;;;;2.00;1.50;;;;;14.12;64.71;99444.84;5076504;27;45760;-75
2023/03/31 02:32:38;;;;;;;;;2.25;1.00;;;;;14.09;65.32;99440.69;5077020;27;45560;-75
2023/03/31 02:35:06;;;;;;;;;3.00;2.00;;;;;14.10;65.30;99431.81;5076866;27;46540;-75
2023/03/31 02:41:34;;;;;;;;;1.75;1.00;;;;;14.07;64.97;99403.19;5072288;28;45601;-75
2023/03/31 02:44:00;;;;;;;;;4.00;3.25;;;;;14.09;65.13;99403.81;5077051;27;45693;-75
2023/03/31 02:46:27;;;;;;;;;1.00;1.00;;;;;14.10;65.12;99397.59;5076561;28;45632;-75
2023/03/31 02:48:56;;;;;;;;;1.00;1.00;;;;;14.11;65.29;99379.97;5076344;27;46378;-75
2023/03/31 02:51:34;;;;;;;;;3.25;1.75;;;;;14.13;65.22;99384.09;5076444;27;45705;-73
2023/03/31 02:54:24;;;;;;;;;3.00;2.00;;;;;14.07;65.19;99363.69;5076934;28;45681;-75
2023/03/31 02:56:52;;;;;;;;;4.00;2.00;;;;;14.07;65.25;99362.84;5075062;28;48457;-76
2023/03/31 02:59:45;;;;;;;;;4.25;3.00;;;;;14.05;65.29;99352.47;5076228;27;46047;-74
2023/03/31 03:02:25;;;;;;;;;2.75;2.00;;;;;14.04;65.24;99350.00;5075767;28;45621;-75
2023/03/31 03:05:00;;;;;;;;;2.75;1.50;;;;;14.04;65.39;99360.53;5076518;27;45543;-75
2023/03/31 03:07:36;;;;;;;;;2.50;2.00;;;;;14.02;65.38;99352.81;5076137;27;47693;-73
2023/03/31 03:10:11;;;;;;;;;2.00;1.00;;;;;13.86;65.48;99322.00;5108139;27;45923;-75
2023/03/31 03:12:48;;;;;;;;;2.75;1.25;;;;;13.96;65.43;99340.28;5075759;27;45573;-77
2023/03/31 03:15:26;;;;;;;;;2.00;2.00;;;;;13.88;65.40;99334.97;5076230;28;45916;-76
2023/03/31 03:17:54;;;;;;;;;3.50;1.50;;;;;13.84;65.44;99336.31;5074549;28;48601;-76
2023/03/31 03:20:21;;;;;;;;;2.50;1.50;;;;;13.88;65.48;99356.06;5075783;27;46690;-77
2023/03/31 03:22:46;;;;;;;;;3.25;1.50;;;;;13.85;65.52;99340.59;5075931;27;45656;-75
2023/03/31 03:25:16;;;;;;;;;3.25;2.25;;;;;13.83;65.71;99334.66;5075938;28;45905;-75
2023/03/31 03:27:41;;;;;;;;;2.50;2.00;;;;;13.83;65.35;99340.75;5075614;27;46298;-75
2023/03/31 03:30:10;;;;;;;;;4.00;2.00;;;;;13.74;65.59;99322.47;5075737;27;46955;-75
2023/03/31 03:32:38;;;;;;;;;2.75;1.25;;;;;13.76;65.78;99323.97;5075507;27;45887;-74
2023/03/31 03:35:07;;;;;;;;;4.00;2.25;;;;;13.77;65.36;99319.50;5074566;28;45826;-76
2023/03/31 03:37:33;;;;;;;;;4.50;2.00;;;;;13.69;65.56;99315.06;5075947;27;45751;-76
2023/03/31 03:40:04;;;;;;;;;2.75;2.75;;;;;13.66;65.48;99306.63;5091112;27;45818;-73
2023/03/31 03:42:29;;;;;;;;;2.75;2.00;;;;;13.73;65.37;99310.28;5075717;28;45512;-75
2023/03/31 03:44:55;;;;;;;;;5.75;3.00;;;;;13.77;65.71;99299.25;5076049;27;45520;-76
2023/03/31 03:47:20;;;;;;;;;4.25;3.00;;;;;13.76;65.45;99299.44;5075474;27;47164;-76
2023/03/31 03:49:47;;;;;;;;;2.75;2.50;;;;;13.71;65.76;99288.56;5075363;28;46239;-74
2023/03/31 03:52:13;;;;;;;;;2.50;2.00;;;;;13.76;65.55;99299.44;5075150;27;45720;-75
2023/03/31 03:54:38;;;;;;;;;3.25;2.25;;;;;13.69;65.43;99291.34;5091632;27;45537;-76
2023/03/31 03:57:05;;;;;;;;;2.00;1.50;;;;;13.73;65.35;99281.31;5075849;27;45649;-75
2023/03/31 03:59:30;;;;;;;;;4.75;2.75;;;;;13.79;65.74;99283.31;5075520;28;45867;-75
2023/03/31 04:01:56;;;;;;;;;2.75;2.00;;;;;13.72;65.46;99275.22;5075145;28;45652;-77
2023/03/31 04:04:21;;;;;;;;;2.75;2.25;;;;;13.78;65.53;99276.41;5075477;27;45500;-75
2023/03/31 04:06:47;;;;;;;;;2.50;1.50;;;;;13.74;65.81;99269.81;5075283;28;45656;-76
2023/03/31 04:09:12;;;;;;;;;2.75;2.00;;;;;13.70;65.43;99256.16;5075245;27;46057;-77
2023/03/31 04:11:55;;;;;;;;;4.75;3.00;;;;;13.73;65.98;99261.09;5073627;28;45519;-77
2023/03/31 04:14:20;;;;;;;;;5.75;3.50;;;;;13.73;65.80;99253.19;5075593;27;45813;-76
2023/03/31 04:16:46;;;;;;;;;2.75;1.25;;;;;13.64;65.59;99248.91;5075088;28;45830;-75
2023/03/31 04:19:13;;;;;;;;;3.00;3.00;;;;;13.64;65.74;99251.53;5074789;27;46976;-75
2023/03/31 04:21:44;;;;;;;;;3.75;3.00;;;;;13.71;65.72;99265.69;5074980;27;45518;-76
2023/03/31 04:27:32;;;;;;;;;4.25;3.00;;;;;13.79;65.49;99273.59;5074918;28;45669;-76
2023/03/31 04:29:58;;;;;;;;;3.50;3.00;;;;;13.78;65.19;99268.50;5074876;27;46030;-77
2023/03/31 04:32:23;;;;;;;;;3.00;2.25;;;;;13.80;64.90;99253.38;5074281;27;45599;-75
2023/03/31 04:34:49;;;;;;;;;3.50;2.25;;;;;13.79;65.07;99257.81;5073781;28;45703;-76
2023/03/31 04:37:16;;;;;;;;;5.75;3.00;;;;;13.73;65.05;99258.47;5073956;28;45827;-75
2023/03/31 04:39:41;;;;;;;;;4.00;3.00;;;;;13.77;64.91;99240.53;5074278;27;47150;-75
2023/03/31 04:42:06;;;;;;;;;5.00;3.00;;;;;13.78;64.67;99255.34;5073847;27;45672;-76
2023/03/31 04:44:31;;;;;;;;;4.75;3.25;;;;;13.79;64.68;99254.34;5074798;28;45538;-76
2023/03/31 04:46:57;;;;;;;;;4.00;3.00;;;;;13.79;64.56;99256.97;5074591;28;45552;-76
2023/03/31 04:49:23;;;;;;;;;3.00;2.00;;;;;13.78;64.61;99273.75;5074124;27;47299;-74
2023/03/31 04:51:49;;;;;;;;;2.00;1.00;;;;;13.78;64.34;99257.97;5074445;27;45627;-76
2023/03/31 04:57:36;;;;;;;;;8.00;2.00;;;;;13.83;63.81;99271.47;5074321;28;45629;-75
2023/03/31 05:00:06;;;;;;;;;1.75;1.50;;;;;13.77;63.76;99243.16;5074609;27;45581;-75
2023/03/31 05:02:32;;;;;;;;;5.50;2.75;;;;;13.82;63.40;99254.00;5073172;28;45677;-76
2023/03/31 05:05:00;;;;;;;;;3.25;3.00;;;;;13.79;63.68;99243.81;5074514;27;45681;-77
2023/03/31 05:07:25;;;;;;;;;3.50;3.00;;;;;13.81;63.62;99241.88;5074601;27;45639;-75
2023/03/31 05:13:12;;;;;;;;;4.25;2.00;;;;;13.78;62.67;99266.69;5074190;28;45695;-75
2023/03/31 05:15:39;;;;;;;;;3.75;2.25;;;;;13.74;62.96;99241.69;5074130;28;45612;-75
2023/03/31 05:18:08;;;;;;;;;8.50;3.00;;;;;13.77;62.45;99241.34;5074046;27;46564;-72
2023/03/31 05:20:33;;;;;;;;;8.25;4.25;;;;;13.65;62.64;99226.06;5073953;27;47067;-73
2023/03/31 05:22:59;;;;;;;;;3.50;3.25;;;;;13.77;62.66;99230.81;5089362;27;46000;-73
2023/03/31 05:25:24;;;;;;;;;5.00;1.50;;;;;13.54;62.33;99184.25;5089756;27;45876;-74
2023/03/31 05:27:58;;;;;;;;;5.50;3.00;;;;;13.80;62.64;99232.31;5073764;28;45855;-74
2023/03/31 05:30:25;;;;;;;;;4.25;3.00;;;;;13.60;62.20;99197.59;5073752;28;46294;-72
2023/03/31 05:32:50;;;;;;;;;1.00;1.00;;;;;13.81;62.16;99226.91;5073634;27;45712;-74
2023/03/31 05:35:16;;;;;;;;;7.25;4.00;;;;;13.83;62.28;99232.81;5073494;28;45747;-73
2023/03/31 05:37:42;;;;;;;;;8.50;3.00;;;;;13.82;62.00;99233.78;5073308;27;46245;-73
2023/03/31 05:40:08;;;;;;;;;5.00;3.00;;;;;13.65;61.57;99194.47;5072904;27;46452;-73
2023/03/31 05:42:33;;;;;;;;;5.00;2.25;;;;;13.79;61.77;99215.69;5073141;28;45804;-72
2023/03/31 05:44:59;;;;;;;;;2.00;1.50;;;;;13.87;61.55;99225.41;5073208;27;46082;-70
2023/03/31 05:47:25;;;;;;;;;5.50;2.00;;;;;13.85;61.17;99222.13;5073014;28;45620;-71
2023/03/31 05:49:50;;;;;;;;;4.75;2.00;;;;;13.84;61.10;99216.03;5076262;28;45661;-72
2023/03/31 05:52:16;;;;;;;;;8.50;3.50;;;;;13.89;61.19;99236.59;5077225;28;45580;-71
2023/03/31 05:54:44;;;;;;;;;5.00;3.50;;;;;13.83;61.19;99198.56;5077254;27;45447;-72
2023/03/31 05:57:10;;;;;;;;;2.50;2.00;;;;;13.86;61.50;99227.22;5076980;27;45819;-71
2023/03/31 05:59:37;;;;;;;;;7.00;4.00;;;;;13.84;61.22;99231.00;5092971;27;47513;-73
2023/03/31 06:02:03;;;;;;;;;2.25;1.00;;;;;13.80;61.33;99235.78;5077225;27;45687;-71
2023/03/31 06:04:31;;;;;;;;;6.25;4.00;;;;;13.70;61.74;99214.06;5077190;27;45621;-72
2023/03/31 06:06:57;;;;;;;;;4.75;3.00;;;;;13.78;61.65;99234.28;5076871;27;45829;-72
2023/03/31 06:09:22;;;;;;;;;3.25;2.00;;;;;13.78;61.55;99234.28;5076645;27;45550;-71
2023/03/31 06:11:47;;;;;;;;;2.25;2.00;;;;;13.76;61.49;99231.00;5076897;28;45458;-70
2023/03/31 06:14:13;;;;;;;;;4.25;2.50;;;;;13.77;61.70;99227.34;5077446;28;45672;-71
2023/03/31 06:16:38;;;;;;;;;6.50;2.50;;;;;13.74;61.64;99236.41;5076625;28;46354;-72
2023/03/31 06:19:03;;;;;;;;;7.50;2.50;;;;;13.79;61.05;99231.50;5076921;28;45777;-70
2023/03/31 06:21:29;;;;;;;;;3.50;1.75;;;;;13.79;61.00;99228.84;5077155;27;45467;-74
2023/03/31 06:23:57;;;;;;;;;4.25;2.50;;;;;13.80;61.14;99227.06;5077080;27;45545;-72
2023/03/31 06:26:23;;;;;;;;;2.75;1.25;;;;;13.75;61.12;99219.66;5076539;27;47314;-71
2023/03/31 06:28:48;;;;;;;;;4.75;2.00;;;;;13.82;60.96;99230.31;5075027;28;46501;-72
2023/03/31 06:31:16;;;;;;;;;3.00;2.25;;;;;13.85;60.84;99248.44;5076482;27;45769;-71
2023/03/31 06:33:42;;;;;;;;;5.50;3.00;;;;;13.84;60.40;99234.44;5076864;28;45741;-72
2023/03/31 06:36:09;;;;;;;;;2.00;1.75;;;;;13.76;60.64;99212.56;5076106;27;46668;-72
2023/03/31 06:38:37;;;;;;;;;5.00;2.00;;;;;13.87;60.58;99234.09;5076214;28;46705;-72
2023/03/31 06:45:04;;;;;;;;;4.75;1.00;;;;;13.88;60.50;99248.94;5072337;28;45598;-72
2023/03/31 06:47:30;;;;;;;;;2.75;2.00;;;;;13.91;60.60;99241.69;5076121;28;47479;-71
2023/03/31 06:49:55;;;;;;;;;5.50;3.00;;;;;13.92;60.77;99246.00;5076566;27;46156;-71
2023/03/31 06:52:20;;;;;;;;;4.00;3.00;;;;;13.94;60.33;99267.69;5076165;28;45720;-72
2023/03/31 06:54:46;;;;;;;;;3.75;2.25;;;;;13.92;60.40;99261.78;5076272;27;45674;-70
2023/03/31 06:57:11;;;;;;;;;5.50;3.25;;;;;13.92;60.24;99236.28;5075946;28;47267;-70
2023/03/31 06:59:37;;;;;;;;;4.50;3.00;;;;;13.91;60.11;99242.53;5076111;27;46147;-71
2023/03/31 07:02:03;;;;;;;;;6.00;3.00;;;;;13.89;60.12;99226.06;5075673;27;45646;-70
2023/03/31 07:04:28;;;;;;;;;6.25;1.00;;;;;13.87;60.37;99228.06;5076246;27;45806;-70
2023/03/31 07:06:54;;;;;;;;;4.00;2.50;;;;;13.95;59.89;99238.56;5075786;27;46347;-72
2023/03/31 07:09:22;;;;;;;;;4.25;1.50;;;;;13.98;59.90;99243.50;5075549;27;45676;-72
2023/03/31 07:11:48;;;;;;;;;4.25;3.75;;;;;13.99;59.75;99236.41;5075783;27;45834;-71
2023/03/31 07:14:13;;;;;;;;;8.50;2.00;;;;;14.00;59.85;99230.19;5076424;28;45506;-70
2023/03/31 07:16:38;;;;;;;;;6.00;1.50;;;;;13.96;59.72;99227.06;5075554;28;47245;-70
2023/03/31 07:19:06;;;;;;;;;4.00;2.75;;;;;14.00;60.11;99236.28;5075565;27;46121;-71
2023/03/31 07:21:32;;;;;;;;;3.25;2.25;;;;;14.00;59.84;99227.53;5076162;28;45703;-71
2023/03/31 07:23:57;;;;;;;;;4.25;3.00;;;;;14.03;59.55;99243.84;5076244;27;45719;-72
2023/03/31 07:29:44;;;;;;;;;1.75;1.00;;;;;13.95;60.03;99243.00;5075708;28;45542;-71
2023/03/31 07:32:10;;;;;;;;;4.25;1.50;;;;;13.95;59.96;99262.28;5075850;27;45594;-71
2023/03/31 07:34:35;;;;;;;;;2.00;1.00;;;;;13.81;59.89;99236.59;5076280;27;45538;-73
2023/03/31 07:37:00;;;;;;;;;3.50;1.00;;;;;13.78;59.84;99232.47;5075352;28;46514;-71
2023/03/31 07:39:26;;;;;;;;;6.00;3.25;;;;;13.87;60.13;99243.84;5075331;28;45957;-73
2023/03/31 07:41:51;;;;;;;;;3.50;1.00;;;;;13.84;59.96;99233.63;5075388;28;45643;-71
2023/03/31 07:44:17;;;;;;;;;4.00;1.00;;;;;13.94;59.63;99252.72;5075672;27;45626;-70
2023/03/31 07:46:43;;;;;;;;;6.50;3.00;;;;;13.94;59.97;99249.25;5075184;27;46652;-71
2023/03/31 07:49:09;;;;;;;;;3.75;1.50;;;;;13.96;59.67;99257.81;5075426;27;45665;-71
2023/03/31 07:51:34;;;;;;;;;3.75;2.00;;;;;14.00;59.71;99273.13;5075188;27;45638;-71
2023/03/31 07:53:59;;;;;;;;;2.00;1.00;;;;;13.99;59.82;99255.69;5075495;27;45646;-72
2023/03/31 07:59:46;;;;;;;;;2.75;1.00;;;;;14.06;59.77;99248.78;5074879;28;46088;-70
2023/03/31 08:02:15;;;;;;;;;2.25;1.00;;;;;14.10;59.70;99251.91;5075120;27;45747;-70
2023/03/31 08:04:43;;;;;;;;;2.50;2.00;;;;;14.13;60.13;99262.13;5075551;27;45705;-71
2023/03/31 08:07:13;;;;;;;;;7.50;2.00;;;;;14.11;60.21;99235.94;5090491;27;47644;-71
2023/03/31 08:09:39;;;;;;;;;3.50;2.00;;;;;14.14;59.91;99256.66;5075117;28;46395;-72
2023/03/31 08:15:27;;;;;;;;;6.25;2.00;;;;;14.17;60.28;99237.09;5074649;28;45720;-72
2023/03/31 08:17:53;;;;;;;;;2.25;2.00;;;;;14.22;60.13;99247.94;5074460;27;45902;-72
2023/03/31 08:20:18;;;;;;;;;3.75;1.00;;;;;14.22;60.17;99259.31;5074637;28;52694;-70
2023/03/31 08:22:43;;;;;;;;;2.00;1.00;;;;;14.22;60.09;99254.03;5074644;27;45600;-71
2023/03/31 08:25:09;;;;;;;;;5.00;2.00;;;;;14.25;60.10;99253.69;5074970;27;45695;-71
2023/03/31 08:27:39;;;;;;;;;5.00;2.00;;;;;14.23;60.20;99237.25;5074877;27;46292;-71
2023/03/31 08:30:06;;;;;;;;;3.50;2.25;;;;;14.29;60.29;99239.22;5074763;27;45929;-72
2023/03/31 08:32:33;;;;;;;;;3.25;1.00;;;;;14.33;60.25;99239.72;5074700;27;45600;-71
2023/03/31 08:34:59;;;;;;;;;4.00;2.50;;;;;14.35;60.13;99236.91;5074837;27;45774;-70
2023/03/31 08:37:27;;;;;;;;;5.00;3.00;;;;;14.37;59.82;99235.78;5074568;27;45588;-72
2023/03/31 08:39:54;;;;;;;;;2.00;2.00;;;;;14.39;59.84;99248.78;5074319;28;46101;-71
2023/03/31 08:45:46;;;;;;;;;2.50;1.75;;;;;14.40;59.68;99253.91;5061763;28;45687;-71
2023/03/31 08:48:27;;;;;;;;;3.25;2.00;;;;;14.44;59.74;99235.94;5053977;28;46481;-72
2023/03/31 08:51:04;;;;;;;;;4.25;3.00;;;;;14.43;58.80;99226.38;5052846;28;47438;-71
2023/03/31 08:53:41;;;;;;;;;2.50;1.75;;;;;14.53;58.70;99235.75;5054443;28;45625;-72
2023/03/31 08:56:13;;;;;;;;;3.00;2.50;;;;;14.53;58.57;99221.75;5054695;28;45785;-71
2023/03/31 08:58:48;;;;;;;;;6.00;3.75;;;;;14.61;58.12;99230.47;5053949;28;47061;-71
2023/03/31 09:01:42;;;;;;;;;2.75;2.00;;;;;14.65;58.09;99237.03;5054106;28;46067;-71
2023/03/31 09:04:26;;;;;;;;;2.00;2.00;;;;;14.71;57.60;99248.72;5011551;28;45720;-71
2023/03/31 09:07:22;;;;;;;;;3.00;1.75;;;;;14.76;57.14;99235.03;5009826;28;45691;-71
2023/03/31 09:10:11;;;;;;;;;5.50;1.50;;;;;14.69;56.96;99253.34;5011668;28;47275;-71
2023/03/31 09:12:55;;;;;;;;;2.75;1.75;;;;;14.85;56.75;99237.47;5011298;28;46269;-71
2023/03/31 09:15:47;;;;;;;;;2.00;2.00;;;;;14.93;56.65;99234.81;5011344;28;45766;-71
2023/03/31 09:18:34;;;;;;;;;3.25;1.00;;;;;14.96;56.52;99221.28;5011294;28;45660;-72
2023/03/31 09:21:12;;;;;;;;;2.75;1.00;;;;;14.99;55.89;99242.06;5031391;28;46558;-71
2023/03/31 09:23:45;;;;;;;;;2.50;1.00;;;;;14.93;56.38;99237.47;5030890;28;45989;-71
2023/03/31 09:29:47;;;;;;;;;3.00;1.00;;;;;14.86;55.99;99218.03;5031693;28;45576;-71
2023/03/31 09:32:25;;;;;;;;;3.00;1.50;;;;;14.76;56.34;99233.22;5014562;28;46536;-72
2023/03/31 09:34:57;;;;;;;;;2.00;1.00;;;;;14.75;56.47;99228.94;5031665;28;45910;-71
2023/03/31 09:37:29;;;;;;;;;3.75;2.50;;;;;14.67;56.25;99203.44;5031174;28;45785;-72
2023/03/31 09:40:06;;;;;;;;;2.25;2.00;;;;;14.92;55.71;99224.44;5031711;28;45665;-71
2023/03/31 09:45:54;;;;;;;;;1.75;1.50;;;;;14.96;55.37;99229.19;5086048;27;45950;-71
2023/03/31 09:48:25;;;;;;;;;1.00;0.00;;;;;14.98;55.13;99229.03;5076126;27;45646;-73
2023/03/31 09:51:02;;;;;;;;;1.50;1.00;;;;;15.04;55.13;99223.91;5094148;27;45953;-71
2023/03/31 09:53:45;;;;;;;;;2.00;0.75;;;;;14.95;54.91;99218.84;5092597;27;47486;-71
2023/03/31 09:56:10;;;;;;;;;3.25;1.50;;;;;15.02;55.07;99215.31;5094009;27;45981;-71
2023/03/31 09:58:43;;;;;;;;;2.25;1.25;;;;;15.17;54.72;99227.81;5093564;27;45632;-72
2023/03/31 10:01:11;;;;;;;;;1.00;0.50;;;;;15.16;54.89;99231.44;5093908;27;45641;-71
2023/03/31 10:03:52;;;;;;;;;1.75;0.75;;;;;15.11;54.47;99234.59;5092345;27;46489;-71
2023/03/31 10:06:19;;;;;;;;;3.25;0.00;;;;;15.04;54.32;99223.06;5093567;27;46352;-71
2023/03/31 10:08:51;;;;;;;;;1.50;0.75;;;;;15.06;54.46;99205.28;5093541;27;45624;-70
2023/03/31 10:11:17;;;;;;;;;3.00;1.75;;;;;15.03;54.60;99209.06;5093988;27;45679;-71
2023/03/31 10:13:58;;;;;;;;;1.00;1.00;;;;;15.14;54.16;99194.66;5093995;27;45746;-70
2023/03/31 10:16:29;;;;;;;;;2.50;1.75;;;;;15.19;53.93;99204.69;5093962;27;45938;-70
2023/03/31 10:19:12;;;;;;;;;2.25;1.00;;;;;15.30;53.97;99217.50;5093674;27;45690;-70
2023/03/31 10:21:38;;;;;;;;;1.00;1.00;;;;;15.35;53.76;99228.34;5093443;27;45797;-71
2023/03/31 10:24:09;;;;;;;;;1.00;0.25;;;;;15.41;53.82;99230.31;5093445;27;46570;-70
2023/03/31 10:26:35;;;;;;;;;1.00;0.25;;;;;15.46;53.87;99225.31;5093512;27;45979;-70
2023/03/31 10:29:00;;;;;;;;;4.00;2.00;;;;;15.45;53.49;99250.06;5093074;27;45518;-72
2023/03/31 10:31:34;;;;;;;;;2.00;1.25;;;;;15.43;52.82;99223.06;5093519;27;45617;-71
2023/03/31 10:34:08;;;;;;;;;4.00;0.75;;;;;15.48;52.76;99210.16;5093574;27;45548;-72
2023/03/31 10:36:34;;;;;;;;;1.00;1.00;;;;;15.45;52.45;99211.31;5095156;27;46404;-70
2023/03/31 10:39:05;;;;;;;;;0.25;0.00;;;;;15.52;51.69;99191.19;5096942;27;45638;-71
2023/03/31 10:41:32;;;;;;;;;2.50;0.75;;;;;15.52;52.30;99217.56;5097170;27;45664;-71
2023/03/31 10:43:59;;;;;;;;;1.25;0.00;;;;;15.58;51.86;99220.50;5097070;27;46361;-71
2023/03/31 10:46:49;;;;;;;;;0.50;0.00;;;;;15.51;51.71;99208.00;5096366;27;46228;-71
2023/03/31 10:49:20;;;;;;;;;0.75;0.25;;;;;15.61;52.15;99217.50;5096350;27;45570;-71
2023/03/31 10:51:51;;;;;;;;;1.00;1.00;;;;;15.64;51.69;99215.34;5096970;27;45864;-71
2023/03/31 10:54:17;;;;;;;;;1.00;0.00;;;;;15.64;51.75;99240.94;5095404;27;47738;-70
2023/03/31 10:56:51;;;;;;;;;0.25;0.25;;;;;15.63;51.31;99220.81;5096355;27;46601;-69
2023/03/31 10:59:45;;;;;;;;;4.25;1.75;;;;;15.65;51.94;99229.38;5096408;27;45793;-71
2023/03/31 11:02:32;;;;;;;;;1.75;1.50;;;;;15.64;51.24;99223.28;5096615;27;45846;-70
2023/03/31 11:05:21;;;;;;;;;3.50;1.00;;;;;15.57;51.28;99197.75;5096695;27;46366;-71
2023/03/31 11:08:24;;;;;;;;;2.25;0.50;;;;;15.66;51.68;99197.50;5096260;27;47185;-71
2023/03/31 11:11:13;;;;;;;;;2.00;1.00;;;;;15.72;51.58;99246.16;5096419;27;45536;-69
2023/03/31 11:13:55;;;;;;;;;1.25;0.25;;;;;15.74;51.40;99236.25;5095977;27;46067;-71
2023/03/31 11:16:38;;;;;;;;;1.00;0.00;;;;;15.71;51.21;99229.47;5096323;27;46843;-72
2023/03/31 11:19:13;;;;;;;;;1.25;1.00;;;;;15.68;51.15;99240.41;5096270;27;46611;-71
2023/03/31 11:22:04;;;;;;;;;1.00;1.00;;;;;15.70;51.09;99250.81;5096195;27;45741;-71
2023/03/31 11:24:45;;;;;;;;;1.00;1.00;;;;;15.63;51.44;99216.34;5096817;27;45684;-71
2023/03/31 11:30:50;;;;;;;;;0.50;0.50;;;;;15.73;51.40;99211.66;5096334;27;45744;-71
2023/03/31 11:33:42;;;;;;;;;2.00;1.00;;;;;15.83;51.31;99214.88;5096193;27;45580;-71
2023/03/31 11:36:14;;;;;;;;;2.00;0.50;;;;;15.84;50.70;99213.88;5096044;27;45739;-72
2023/03/31 11:38:46;;;;;;;;;1.00;0.00;;;;;15.79;50.68;99213.59;5094471;27;46648;-71
2023/03/31 11:41:18;;;;;;;;;1.75;0.75;;;;;15.82;50.66;99205.31;5095901;27;46415;-71
2023/03/31 11:47:12;;;;;;;;;1.50;0.75;;;;;15.84;50.66;99195.38;5093924;27;45861;-71
2023/03/31 11:49:40;;;;;;;;;2.00;1.00;;;;;15.87;50.38;99173.91;5095479;27;46407;-71
2023/03/31 11:52:13;;;;;;;;;0.50;0.00;;;;;15.99;49.99;99224.50;5095625;27;46687;-71
2023/03/31 11:54:59;;;;;;;;;1.00;0.00;;;;;16.05;50.02;99201.81;5096018;27;45489;-70
2023/03/31 11:57:51;;;;;;;;;1.00;0.00;;;;;16.06;49.67;99203.47;5095872;27;45591;-70
2023/03/31 12:00:19;;;;;;;;;1.75;1.00;;;;;16.07;48.85;99220.97;5095434;27;47118;-70
2023/03/31 12:02:53;;;;;;;;;0.25;0.00;;;;;16.07;49.00;99191.91;5095585;27;47124;-70
2023/03/31 12:05:23;;;;;;;;;2.00;0.50;;;;;16.11;49.81;99191.38;5095548;27;45662;-71
2023/03/31 12:08:03;;;;;;;;;1.00;0.00;;;;;16.18;49.28;99183.53;5111556;27;45856;-71
2023/03/31 12:10:37;;;;;;;;;0.00;0.00;;;;;16.23;49.72;99187.28;5096015;27;45653;-71
2023/03/31 12:13:40;;;;;;;;;1.00;0.00;;;;;16.32;49.20;99190.66;5111412;27;45953;-72
2023/03/31 12:16:22;;;;;;;;;1.25;1.00;;;;;16.33;49.75;99222.22;5095494;27;45609;-71
2023/03/31 12:19:03;;;;;;;;;1.00;0.00;;;;;16.34;49.57;99194.78;5095095;27;45936;-71
2023/03/31 12:21:30;;;;;;;;;0.00;0.00;;;;;16.14;49.48;99174.34;5095386;27;46828;-71
2023/03/31 12:23:56;;;;;;;;;0.50;0.00;;;;;16.23;49.79;99194.41;5095438;27;47138;-70
2023/03/31 12:26:53;;;;;;;;;1.00;0.00;;;;;16.27;49.49;99174.53;5095430;27;45733;-71
2023/03/31 12:29:28;;;;;;;;;0.00;0.00;;;;;16.24;49.34;99210.09;5095343;27;45659;-71
2023/03/31 12:31:56;;;;;;;;;1.75;0.75;;;;;16.19;49.26;99196.59;5095080;27;46419;-71
2023/03/31 12:34:25;;;;;;;;;0.75;0.00;;;;;16.27;49.28;99185.09;5095063;27;47096;-70
2023/03/31 12:37:22;;;;;;;;;0.00;0.00;;;;;16.32;49.27;99175.63;5095047;27;45541;-71
2023/03/31 12:40:23;;;;;;;;;0.25;0.00;;;;;16.43;48.51;99226.41;5095099;27;45611;-71
2023/03/31 12:46:38;;;;;;;;;1.00;0.00;;;;;16.40;47.72;99206.47;5094518;27;45659;-71
2023/03/31 12:49:27;;;;;;;;;0.00;0.00;;;;;16.45;47.96;99179.47;5094975;27;45680;-72
2023/03/31 12:52:31;;;;;;;;;0.00;0.00;;;;;16.51;47.76;99200.72;5095219;27;45512;-71
2023/03/31 12:55:21;;;;;;;;;0.00;0.00;;;;;16.55;47.91;99191.41;5031800;28;46433;-71
2023/03/31 12:57:46;;;;;;;;;0.00;0.00;;;;;16.58;47.71;99196.34;5031284;28;46235;-71
2023/03/31 13:00:21;;;;;;;;;1.00;0.00;;;;;16.59;47.86;99190.06;5031170;28;45673;-71